createdAt,value
2019-04-20T00:00:37.103Z,38.50
2019-04-20T00:01:40.849Z,38.50
2019-04-20T00:02:50.085Z,38.50
2019-04-20T00:03:51.940Z,38.60
2019-04-20T00:04:57.058Z,38.70
2019-04-20T00:06:01.521Z,38.60
2019-04-20T00:07:06.004Z,38.60
2019-04-20T00:08:17.345Z,38.60
2019-04-20T00:09:21.404Z,38.70
2019-04-20T00:10:24.336Z,38.70
2019-04-20T00:11:36.516Z,38.90
2019-04-20T00:12:48.670Z,39.00
2019-04-20T00:13:48.744Z,39.20
2019-04-20T00:14:45.870Z,39.00
2019-04-20T00:15:51.253Z,39.00
2019-04-20T00:16:56.595Z,39.00
2019-04-20T00:18:04.598Z,39.10
2019-04-20T00:19:08.564Z,39.10
2019-04-20T00:20:20.725Z,39.20
2019-04-20T00:21:22.563Z,39.20
2019-04-20T00:22:36.736Z,39.20
2019-04-20T00:23:43.873Z,39.20
2019-04-20T00:25:06.604Z,39.30
2019-04-20T00:26:24.946Z,39.40
2019-04-20T00:27:44.291Z,39.40
2019-04-20T00:28:45.766Z,39.50
2019-04-20T00:29:52.391Z,39.60
2019-04-20T00:30:58.731Z,40.30
2019-04-20T00:31:59.385Z,39.80
2019-04-20T00:33:03.444Z,39.90
2019-04-20T00:34:06.697Z,40.00
2019-04-20T00:35:04.115Z,40.00
2019-04-20T00:36:10.049Z,40.00
2019-04-20T00:37:15.098Z,40.10
2019-04-20T00:38:21.052Z,40.10
2019-04-20T00:39:25.882Z,40.80
2019-04-20T00:40:30.647Z,40.20
2019-04-20T00:41:44.154Z,40.40
2019-04-20T00:42:45.921Z,40.40
2019-04-20T00:43:47.176Z,40.50
2019-04-20T00:45:02.285Z,40.60
2019-04-20T00:46:02.015Z,40.70
2019-04-20T00:47:13.282Z,40.70
2019-04-20T00:48:22.562Z,40.80
2019-04-20T00:49:30.683Z,41.00
2019-04-20T00:50:34.240Z,41.10
2019-04-20T00:51:39.414Z,41.20
2019-04-20T00:52:49.991Z,41.30
2019-04-20T00:53:43.206Z,41.40
2019-04-20T00:54:45.256Z,41.40
2019-04-20T00:55:50.735Z,41.50
2019-04-20T00:57:05.749Z,41.50
2019-04-20T00:58:12.677Z,41.60
2019-04-20T00:59:20.688Z,41.80
2019-04-20T01:00:31.062Z,41.90
2019-04-20T01:01:42.612Z,42.00
2019-04-20T01:02:40.328Z,42.10
2019-04-20T01:03:47.446Z,42.20
2019-04-20T01:05:00.444Z,42.10
2019-04-20T01:06:12.332Z,41.90
2019-04-20T01:07:17.595Z,41.90
2019-04-20T01:08:12.946Z,41.90
2019-04-20T01:09:24.684Z,42.00
2019-04-20T01:10:37.109Z,41.80
2019-04-20T01:11:39.790Z,41.70
2019-04-20T01:12:42.133Z,41.80
2019-04-20T01:13:52.709Z,41.70
2019-04-20T01:14:57.351Z,41.60
2019-04-20T01:16:04.964Z,41.60
2019-04-20T01:17:11.667Z,41.70
2019-04-20T01:18:10.776Z,41.70
2019-04-20T01:19:15.878Z,41.80
2019-04-20T01:20:26.409Z,41.80
2019-04-20T01:21:32.163Z,41.80
2019-04-20T01:22:44.610Z,41.60
2019-04-20T01:23:49.597Z,41.90
2019-04-20T01:24:50.357Z,41.90
2019-04-20T01:26:01.253Z,41.90
2019-04-20T01:27:02.507Z,41.80
2019-04-20T01:28:24.585Z,41.70
2019-04-20T01:29:21.567Z,41.70
2019-04-20T01:30:24.897Z,41.70
2019-04-20T01:31:32.005Z,41.60
2019-04-20T01:32:45.455Z,41.50
2019-04-20T01:33:46.101Z,41.70
2019-04-20T01:34:52.310Z,41.60
2019-04-20T01:36:14.734Z,41.70
2019-04-20T01:37:09.303Z,41.60
2019-04-20T01:38:18.924Z,41.60
2019-04-20T01:39:17.279Z,41.70
2019-04-20T01:40:13.094Z,41.50
2019-04-20T01:41:18.260Z,41.50
2019-04-20T01:42:23.397Z,41.50
2019-04-20T01:43:29.162Z,41.60
2019-04-20T01:44:38.514Z,41.60
2019-04-20T01:45:40.893Z,41.60
2019-04-20T01:46:46.691Z,41.50
2019-04-20T01:47:54.091Z,41.40
2019-04-20T01:48:59.921Z,41.40
2019-04-20T01:50:08.463Z,41.30
2019-04-20T01:51:14.094Z,41.50
2019-04-20T01:52:20.251Z,41.70
2019-04-20T01:53:41.445Z,41.70
2019-04-20T01:54:51.129Z,41.70
2019-04-20T01:55:50.427Z,41.90
2019-04-20T01:56:53.658Z,41.80
2019-04-20T01:58:06.038Z,41.90
2019-04-20T01:59:21.432Z,41.90
2019-04-20T02:00:23.393Z,41.80
2019-04-20T02:01:28.026Z,41.60
2019-04-20T02:02:34.371Z,41.50
2019-04-20T02:03:43.139Z,41.50
2019-04-20T02:04:48.900Z,41.80
2019-04-20T02:05:59.165Z,41.70
2019-04-20T02:07:02.062Z,41.70
2019-04-20T02:08:07.618Z,41.70
2019-04-20T02:09:15.039Z,41.80
2019-04-20T02:10:18.505Z,41.60
2019-04-20T02:11:27.495Z,41.60
2019-04-20T02:12:33.841Z,41.60
2019-04-20T02:13:42.143Z,41.60
2019-04-20T02:14:45.407Z,41.60
2019-04-20T02:15:51.209Z,41.50
2019-04-20T02:16:58.431Z,41.60
2019-04-20T02:18:09.623Z,42.20
2019-04-20T02:19:21.372Z,41.50
2019-04-20T02:20:32.125Z,41.70
2019-04-20T02:21:34.150Z,41.90
2019-04-20T02:22:45.254Z,41.70
2019-04-20T02:23:38.508Z,41.60
2019-04-20T02:24:34.395Z,41.60
2019-04-20T02:25:39.702Z,41.50
2019-04-20T02:26:45.098Z,41.60
2019-04-20T02:27:55.027Z,41.50
2019-04-20T02:29:20.294Z,41.50
2019-04-20T02:30:29.839Z,41.50
2019-04-20T02:31:55.176Z,41.60
2019-04-20T02:33:00.389Z,41.70
2019-04-20T02:34:03.885Z,41.70
2019-04-20T02:35:18.638Z,41.90
2019-04-20T02:36:51.437Z,41.90
2019-04-20T02:38:01.638Z,42.10
2019-04-20T02:42:18.912Z,42.30
2019-04-20T02:43:40.253Z,42.40
2019-04-20T02:45:50.546Z,42.30
2019-04-20T02:46:31.538Z,42.40
2019-04-20T02:47:43.210Z,42.40
2019-04-20T02:48:41.192Z,42.50
2019-04-20T02:49:51.387Z,42.50
2019-04-20T02:50:59.699Z,42.60
2019-04-20T02:52:21.068Z,42.50
2019-04-20T02:53:17.701Z,42.50
2019-04-20T02:56:32.715Z,42.10
2019-04-20T02:58:45.564Z,41.80
2019-04-20T03:00:39.647Z,42.10
2019-04-20T03:01:46.615Z,42.20
2019-04-20T03:02:46.070Z,42.20
2019-04-20T03:03:44.916Z,42.00
2019-04-20T03:04:51.043Z,42.00
2019-04-20T03:06:04.444Z,41.90
2019-04-20T03:07:09.331Z,41.90
2019-04-20T03:08:20.277Z,42.00
2019-04-20T03:09:32.828Z,42.10
2019-04-20T03:10:43.316Z,42.30
2019-04-20T03:11:49.919Z,42.30
2019-04-20T03:12:46.988Z,42.50
2019-04-20T03:13:50.770Z,42.40
2019-04-20T03:14:52.718Z,42.20
2019-04-20T03:16:00.152Z,42.50
2019-04-20T03:17:10.324Z,42.70
2019-04-20T03:18:17.950Z,42.30
2019-04-20T03:19:17.347Z,42.80
2019-04-20T03:20:31.658Z,42.00
2019-04-20T03:21:37.602Z,42.00
2019-04-20T03:23:05.918Z,42.10
2019-04-20T03:23:52.698Z,42.60
2019-04-20T03:24:54.414Z,42.40
2019-04-20T03:26:18.359Z,42.40
2019-04-20T03:27:20.949Z,43.00
2019-04-20T03:28:47.059Z,42.30
2019-04-20T03:29:58.973Z,42.30
2019-04-20T03:31:36.654Z,42.00
2019-04-20T03:34:03.330Z,42.00
2019-04-20T03:35:55.191Z,42.00
2019-04-20T03:36:59.449Z,42.20
2019-04-20T03:38:00.187Z,42.20
2019-04-20T03:39:03.982Z,42.30
2019-04-20T03:40:06.496Z,42.20
2019-04-20T03:41:09.738Z,42.10
2019-04-20T03:42:03.629Z,42.10
2019-04-20T03:43:07.661Z,42.00
2019-04-20T03:44:17.846Z,41.90
2019-04-20T03:45:22.713Z,41.80
2019-04-20T03:46:31.074Z,41.70
2019-04-20T03:47:38.542Z,41.70
2019-04-20T03:48:51.848Z,41.90
2019-04-20T03:50:04.666Z,41.90
2019-04-20T03:51:07.271Z,42.00
2019-04-20T03:52:31.036Z,41.90
2019-04-20T03:53:58.869Z,42.10
2019-04-20T03:55:07.251Z,41.90
2019-04-20T03:56:27.987Z,41.60
2019-04-20T03:57:43.747Z,41.80
2019-04-20T03:58:44.306Z,41.70
2019-04-20T03:59:55.124Z,41.70
2019-04-20T04:01:08.258Z,41.90
2019-04-20T04:02:29.926Z,42.10
2019-04-20T04:03:29.403Z,42.10
2019-04-20T04:04:37.171Z,42.30
2019-04-20T04:05:42.510Z,42.20
2019-04-20T04:06:39.280Z,42.10
2019-04-20T04:07:43.763Z,41.90
2019-04-20T04:08:58.953Z,41.80
2019-04-20T04:10:08.431Z,41.80
2019-04-20T04:11:12.122Z,41.90
2019-04-20T04:12:41.453Z,41.90
2019-04-20T04:13:43.870Z,41.90
2019-04-20T04:14:47.919Z,41.70
2019-04-20T04:15:59.410Z,41.80
2019-04-20T04:17:02.603Z,41.60
2019-04-20T04:18:17.129Z,41.30
2019-04-20T04:19:21.324Z,41.90
2019-04-20T04:20:23.117Z,41.10
2019-04-20T04:21:44.633Z,41.20
2019-04-20T04:22:50.291Z,41.30
2019-04-20T04:23:56.202Z,41.30
2019-04-20T04:24:58.803Z,41.10
2019-04-20T04:26:08.527Z,41.20
2019-04-20T04:27:09.410Z,41.20
2019-04-20T04:28:23.865Z,41.10
2019-04-20T04:29:30.089Z,41.10
2019-04-20T04:30:27.953Z,41.30
2019-04-20T04:31:39.426Z,41.20
2019-04-20T04:33:08.610Z,41.20
2019-04-20T04:33:55.767Z,41.30
2019-04-20T04:34:57.232Z,41.60
2019-04-20T04:36:00.629Z,41.40
2019-04-20T04:37:13.223Z,41.40
2019-04-20T04:38:14.287Z,41.40
2019-04-20T04:39:26.380Z,41.50
2019-04-20T04:40:31.723Z,41.60
2019-04-20T04:41:32.316Z,41.60
2019-04-20T04:42:42.279Z,41.70
2019-04-20T04:43:48.086Z,41.70
2019-04-20T04:44:43.293Z,41.80
2019-04-20T04:45:38.590Z,41.80
2019-04-20T04:46:53.392Z,41.90
2019-04-20T04:47:49.464Z,42.00
2019-04-20T04:48:59.827Z,41.90
2019-04-20T04:50:09.109Z,42.30
2019-04-20T04:51:12.847Z,41.90
2019-04-20T04:52:15.938Z,42.50
2019-04-20T04:53:30.324Z,42.20
2019-04-20T04:54:34.241Z,42.20
2019-04-20T04:55:41.762Z,42.20
2019-04-20T04:56:35.604Z,42.20
2019-04-20T04:57:43.286Z,42.30
2019-04-20T04:58:47.454Z,42.20
2019-04-20T04:59:51.934Z,42.30
2019-04-20T05:01:06.207Z,42.30
2019-04-20T05:02:03.433Z,42.40
2019-04-20T05:03:28.505Z,42.50
2019-04-20T05:04:31.771Z,42.40
2019-04-20T05:05:49.365Z,42.40
2019-04-20T05:06:49.481Z,42.60
2019-04-20T05:07:52.722Z,42.60
2019-04-20T05:08:51.204Z,42.60
2019-04-20T05:09:52.847Z,42.70
2019-04-20T05:10:58.205Z,42.80
2019-04-20T05:12:07.203Z,42.80
2019-04-20T05:13:09.136Z,42.80
2019-04-20T05:14:19.305Z,42.90
2019-04-20T05:15:32.178Z,43.00
2019-04-20T05:16:46.430Z,42.90
2019-04-20T05:17:53.191Z,43.00
2019-04-20T05:20:06.723Z,43.00
2019-04-20T05:21:11.845Z,43.10
2019-04-20T05:22:19.319Z,42.90
2019-04-20T05:23:21.077Z,42.80
2019-04-20T05:24:37.280Z,42.90
2019-04-20T05:26:01.958Z,42.90
2019-04-20T05:27:26.044Z,43.00
2019-04-20T05:28:29.967Z,43.00
2019-04-20T05:29:25.414Z,42.90
2019-04-20T05:30:26.610Z,43.00
2019-04-20T05:31:39.806Z,42.90
2019-04-20T05:32:48.224Z,43.00
2019-04-20T05:34:11.371Z,43.00
2019-04-20T05:35:12.169Z,42.90
2019-04-20T05:36:12.771Z,42.80
2019-04-20T05:37:29.658Z,42.40
2019-04-20T05:38:32.596Z,42.70
2019-04-20T05:39:32.615Z,42.60
2019-04-20T05:40:44.364Z,42.60
2019-04-20T05:41:41.995Z,42.50
2019-04-20T05:42:52.526Z,42.50
2019-04-20T05:43:54.411Z,42.40
2019-04-20T05:45:07.283Z,42.60
2019-04-20T05:46:16.909Z,42.50
2019-04-20T05:47:21.791Z,42.40
2019-04-20T05:48:20.559Z,42.40
2019-04-20T05:49:33.093Z,42.40
2019-04-20T05:50:37.533Z,42.50
2019-04-20T05:51:46.005Z,42.40
2019-04-20T05:52:58.011Z,42.30
2019-04-20T05:54:01.148Z,42.30
2019-04-20T05:55:07.393Z,42.30
2019-04-20T05:56:12.167Z,42.20
2019-04-20T05:57:23.685Z,42.10
2019-04-20T05:58:29.182Z,42.20
2019-04-20T05:59:27.041Z,42.20
2019-04-20T06:00:40.945Z,42.10
2019-04-20T06:01:47.518Z,42.00
2019-04-20T06:02:44.072Z,42.00
2019-04-20T06:03:49.992Z,42.00
2019-04-20T06:06:21.834Z,41.90
2019-04-20T06:07:14.928Z,41.90
2019-04-20T06:08:28.619Z,41.90
2019-04-20T06:09:42.584Z,41.70
2019-04-20T06:10:36.111Z,41.70
2019-04-20T06:11:44.829Z,41.60
2019-04-20T06:12:40.006Z,41.50
2019-04-20T06:13:57.805Z,41.40
2019-04-20T06:15:08.328Z,41.50
2019-04-20T06:16:25.302Z,41.50
2019-04-20T06:17:32.058Z,41.40
2019-04-20T06:18:34.779Z,41.40
2019-04-20T06:19:47.267Z,41.30
2019-04-20T06:20:58.954Z,41.10
2019-04-20T06:22:15.599Z,41.10
2019-04-20T06:23:40.404Z,41.10
2019-04-20T06:24:45.597Z,41.10
2019-04-20T06:27:04.985Z,41.00
2019-04-20T06:28:06.587Z,40.80
2019-04-20T06:29:10.093Z,40.80
2019-04-20T06:30:13.765Z,40.80
2019-04-20T06:31:36.025Z,40.80
2019-04-20T06:33:21.547Z,40.80
2019-04-20T06:35:43.910Z,40.80
2019-04-20T06:36:40.026Z,40.00
2019-04-20T06:37:50.154Z,40.60
2019-04-20T06:39:59.215Z,40.60
2019-04-20T06:41:10.481Z,40.50
2019-04-20T06:43:13.231Z,40.60
2019-04-20T06:44:24.836Z,40.50
2019-04-20T06:45:34.996Z,40.50
2019-04-20T06:46:36.355Z,40.40
2019-04-20T06:47:44.124Z,40.50
2019-04-20T06:48:46.173Z,40.50
2019-04-20T06:49:51.598Z,41.20
2019-04-20T06:50:54.093Z,40.50
2019-04-20T06:52:23.072Z,40.40
2019-04-20T06:53:47.032Z,40.40
2019-04-20T06:54:48.324Z,40.30
2019-04-20T06:56:06.839Z,40.20
2019-04-20T06:57:09.968Z,40.10
2019-04-20T06:58:28.032Z,40.00
2019-04-20T06:59:29.070Z,40.10
2019-04-20T07:00:25.689Z,40.00
2019-04-20T07:01:47.057Z,40.00
2019-04-20T07:04:00.626Z,39.80
2019-04-20T07:05:00.224Z,39.60
2019-04-20T07:06:26.316Z,39.60
2019-04-20T07:07:14.401Z,39.50
2019-04-20T07:08:37.339Z,39.60
2019-04-20T07:09:34.999Z,39.50
2019-04-20T07:10:53.143Z,39.50
2019-04-20T07:11:41.612Z,39.50
2019-04-20T07:12:42.495Z,39.40
2019-04-20T07:13:39.234Z,39.20
2019-04-20T07:14:48.778Z,39.10
2019-04-20T07:16:15.844Z,39.00
2019-04-20T07:17:34.983Z,39.60
2019-04-20T07:18:35.745Z,38.90
2019-04-20T07:19:36.540Z,39.00
2019-04-20T07:21:05.773Z,38.90
2019-04-20T07:23:24.245Z,38.90
2019-04-20T07:24:41.479Z,38.80
2019-04-20T07:25:44.647Z,38.80
2019-04-20T07:26:49.291Z,38.80
2019-04-20T07:27:59.478Z,38.80
2019-04-20T07:29:09.748Z,38.80
2019-04-20T07:30:07.909Z,38.80
2019-04-20T07:31:17.243Z,38.60
2019-04-20T07:32:15.347Z,38.50
2019-04-20T07:33:32.197Z,38.50
2019-04-20T07:34:46.956Z,38.50
2019-04-20T07:35:47.113Z,38.60
2019-04-20T07:37:20.414Z,38.60
2019-04-20T07:39:19.053Z,38.60
2019-04-20T07:40:20.387Z,38.60
2019-04-20T07:41:41.911Z,38.50
2019-04-20T07:42:45.028Z,38.50
2019-04-20T07:43:57.445Z,38.40
2019-04-20T07:46:04.197Z,38.40
2019-04-20T07:47:14.356Z,38.40
2019-04-20T07:48:15.543Z,38.40
2019-04-20T07:49:25.954Z,38.50
2019-04-20T07:50:25.129Z,38.40
2019-04-20T07:51:23.102Z,38.20
2019-04-20T07:52:33.760Z,37.90
2019-04-20T07:54:08.862Z,37.70
2019-04-20T07:55:26.242Z,37.80
2019-04-20T07:56:11.457Z,37.50
2019-04-20T07:57:16.962Z,37.40
2019-04-20T07:58:15.883Z,37.20
2019-04-20T07:59:23.368Z,37.10
2019-04-20T08:00:51.880Z,37.00
2019-04-20T08:02:07.827Z,37.00
2019-04-20T08:03:28.105Z,36.90
2019-04-20T08:04:28.771Z,36.90
2019-04-20T08:05:50.117Z,37.00
2019-04-20T08:06:51.980Z,36.90
2019-04-20T08:08:02.592Z,36.90
2019-04-20T08:09:12.923Z,36.80
2019-04-20T08:10:14.688Z,36.90
2019-04-20T08:11:36.052Z,37.00
2019-04-20T08:12:46.596Z,37.10
2019-04-20T08:13:51.435Z,37.10
2019-04-20T08:15:08.497Z,36.80
2019-04-20T08:16:35.677Z,36.80
2019-04-20T08:17:28.580Z,36.80
2019-04-20T08:18:29.340Z,36.80
2019-04-20T08:19:57.867Z,36.90
2019-04-20T08:20:57.662Z,36.80
2019-04-20T08:22:16.839Z,36.80
2019-04-20T08:23:17.511Z,36.80
2019-04-20T08:24:21.466Z,36.50
2019-04-20T08:25:22.484Z,36.50
2019-04-20T08:26:24.314Z,36.50
2019-04-20T08:27:31.739Z,36.50
2019-04-20T08:28:53.416Z,36.50
2019-04-20T08:30:02.008Z,36.30
2019-04-20T08:31:20.588Z,36.30
2019-04-20T08:32:32.544Z,36.20
2019-04-20T08:33:42.673Z,36.10
2019-04-20T08:34:54.705Z,36.10
2019-04-20T08:36:01.229Z,36.00
2019-04-20T08:37:03.156Z,36.00
2019-04-20T08:38:38.337Z,35.70
2019-04-20T08:39:30.507Z,35.60
2019-04-20T08:40:31.828Z,35.60
2019-04-20T08:41:30.055Z,35.70
2019-04-20T08:42:51.175Z,35.70
2019-04-20T08:45:04.033Z,35.80
2019-04-20T08:46:05.516Z,35.70
2019-04-20T08:47:22.068Z,35.70
2019-04-20T08:48:26.338Z,35.60
2019-04-20T08:49:29.544Z,35.60
2019-04-20T08:50:29.596Z,35.60
2019-04-20T08:51:47.859Z,35.60
2019-04-20T08:53:06.791Z,35.50
2019-04-20T08:53:54.066Z,35.40
2019-04-20T08:55:02.339Z,35.50
2019-04-20T08:56:00.238Z,35.50
2019-04-20T08:56:58.118Z,35.30
2019-04-20T08:58:06.967Z,35.20
2019-04-20T08:59:14.342Z,35.20
2019-04-20T09:00:27.483Z,35.30
2019-04-20T09:01:32.351Z,35.30
2019-04-20T09:03:46.215Z,35.60
2019-04-20T09:03:56.454Z,35.70
2019-04-20T09:04:56.981Z,35.60
2019-04-20T09:06:03.521Z,35.70
2019-04-20T09:07:11.544Z,35.60
2019-04-20T09:08:18.905Z,35.40
2019-04-20T09:09:44.316Z,35.30
2019-04-20T09:10:46.737Z,35.20
2019-04-20T09:11:54.270Z,35.30
2019-04-20T09:12:58.361Z,35.30
2019-04-20T09:13:53.616Z,35.60
2019-04-20T09:14:57.536Z,35.00
2019-04-20T09:16:04.247Z,34.90
2019-04-20T09:17:36.585Z,35.30
2019-04-20T09:18:47.202Z,35.40
2019-04-20T09:19:56.881Z,35.30
2019-04-20T09:21:00.396Z,35.40
2019-04-20T09:22:32.263Z,35.20
2019-04-20T09:23:42.400Z,34.80
2019-04-20T09:24:52.791Z,34.40
2019-04-20T09:26:00.424Z,34.50
2019-04-20T09:27:02.336Z,34.40
2019-04-20T09:28:24.067Z,34.30
2019-04-20T09:29:29.331Z,34.10
2019-04-20T09:30:37.559Z,33.50
2019-04-20T09:31:47.058Z,33.30
2019-04-20T09:33:08.072Z,33.30
2019-04-20T09:34:20.360Z,33.40
2019-04-20T09:35:25.436Z,32.70
2019-04-20T09:36:46.012Z,32.60
2019-04-20T09:37:59.643Z,32.20
2019-04-20T09:39:08.659Z,31.80
2019-04-20T09:40:28.201Z,32.00
2019-04-20T09:41:42.170Z,32.00
2019-04-20T09:42:24.703Z,32.30
2019-04-20T09:43:39.240Z,32.50
2019-04-20T09:44:50.894Z,32.70
2019-04-20T09:45:56.914Z,32.70
2019-04-20T09:46:59.494Z,32.90
2019-04-20T09:48:06.768Z,32.90
2019-04-20T09:49:18.591Z,32.90
2019-04-20T09:50:31.937Z,33.00
2019-04-20T09:51:40.157Z,33.00
2019-04-20T09:53:22.158Z,33.10
2019-04-20T09:54:04.345Z,33.20
2019-04-20T09:55:18.464Z,33.00
2019-04-20T09:56:25.571Z,32.70
2019-04-20T09:57:34.048Z,32.80
2019-04-20T09:58:52.367Z,32.90
2019-04-20T09:59:53.722Z,33.10
2019-04-20T10:00:57.972Z,33.10
2019-04-20T10:02:02.123Z,33.20
2019-04-20T10:03:00.418Z,33.20
2019-04-20T10:04:08.644Z,33.10
2019-04-20T10:05:23.269Z,33.00
2019-04-20T10:06:30.033Z,33.00
2019-04-20T10:07:34.008Z,33.10
2019-04-20T10:08:49.180Z,33.30
2019-04-20T10:09:53.835Z,33.30
2019-04-20T10:11:03.636Z,33.20
2019-04-20T10:12:21.933Z,33.10
2019-04-20T10:13:27.166Z,33.20
2019-04-20T10:14:35.217Z,33.40
2019-04-20T10:15:49.860Z,33.00
2019-04-20T10:16:54.276Z,33.00
2019-04-20T10:18:08.294Z,33.10
2019-04-20T10:19:20.598Z,33.20
2019-04-20T10:20:28.371Z,33.00
2019-04-20T10:21:33.911Z,33.00
2019-04-20T10:22:40.587Z,32.80
2019-04-20T10:23:44.962Z,32.80
2019-04-20T10:24:52.104Z,32.70
2019-04-20T10:25:56.794Z,32.70
2019-04-20T10:27:03.054Z,32.70
2019-04-20T10:28:11.657Z,32.40
2019-04-20T10:29:19.596Z,32.30
2019-04-20T10:30:23.836Z,31.60
2019-04-20T10:31:28.570Z,31.10
2019-04-20T10:32:39.189Z,30.20
2019-04-20T10:33:39.608Z,30.20
2019-04-20T10:34:44.328Z,30.50
2019-04-20T10:35:49.638Z,30.60
2019-04-20T10:36:57.506Z,30.60
2019-04-20T10:38:07.361Z,30.40
2019-04-20T10:39:12.847Z,30.30
2019-04-20T10:40:31.578Z,30.70
2019-04-20T10:41:36.122Z,30.40
2019-04-20T10:42:30.035Z,30.30
2019-04-20T10:43:35.012Z,29.80
2019-04-20T10:44:40.967Z,29.50
2019-04-20T10:45:46.924Z,29.40
2019-04-20T10:46:54.342Z,29.30
2019-04-20T10:48:00.888Z,29.30
2019-04-20T10:49:24.859Z,29.40
2019-04-20T10:50:24.995Z,29.50
2019-04-20T10:51:29.545Z,29.70
2019-04-20T10:52:38.026Z,29.80
2019-04-20T10:53:44.486Z,29.80
2019-04-20T10:54:50.265Z,29.10
2019-04-20T10:55:55.771Z,29.10
2019-04-20T10:57:01.408Z,29.30
2019-04-20T10:58:13.638Z,29.40
2019-04-20T10:59:21.471Z,29.30
2019-04-20T11:00:43.848Z,29.30
2019-04-20T11:01:51.854Z,29.20
2019-04-20T11:02:57.486Z,28.80
2019-04-20T11:04:04.881Z,28.40
2019-04-20T11:05:12.859Z,28.10
2019-04-20T11:06:16.932Z,27.80
2019-04-20T11:07:22.856Z,27.80
2019-04-20T11:08:27.091Z,27.60
2019-04-20T11:09:32.349Z,27.40
2019-04-20T11:10:51.091Z,27.40
2019-04-20T11:11:44.225Z,27.60
2019-04-20T11:12:50.532Z,27.40
2019-04-20T11:13:59.881Z,27.50
2019-04-20T11:15:04.406Z,27.40
2019-04-20T11:16:12.646Z,27.50
2019-04-20T11:17:17.996Z,27.40
2019-04-20T11:18:22.518Z,27.20
2019-04-20T11:19:27.420Z,27.30
2019-04-20T11:20:33.198Z,27.50
2019-04-20T11:21:38.607Z,27.20
2019-04-20T11:22:46.353Z,27.20
2019-04-20T11:23:50.544Z,27.10
2019-04-20T11:24:56.499Z,27.10
2019-04-20T11:26:02.224Z,27.30
2019-04-20T11:27:08.049Z,27.20
2019-04-20T11:28:12.425Z,27.00
2019-04-20T11:29:18.189Z,27.10
2019-04-20T11:30:22.772Z,27.10
2019-04-20T11:31:37.365Z,27.00
2019-04-20T11:32:33.631Z,26.90
2019-04-20T11:33:38.409Z,27.10
2019-04-20T11:34:44.169Z,27.80
2019-04-20T11:35:49.941Z,27.40
2019-04-20T11:36:57.223Z,27.40
2019-04-20T11:38:00.909Z,27.30
2019-04-20T11:39:09.128Z,27.30
2019-04-20T11:40:14.922Z,27.30
2019-04-20T11:41:25.542Z,27.20
2019-04-20T11:42:25.756Z,26.60
2019-04-20T11:43:31.570Z,26.40
2019-04-20T11:44:36.552Z,26.40
2019-04-20T11:45:41.112Z,26.40
2019-04-20T11:46:48.104Z,26.50
2019-04-20T11:47:55.735Z,26.50
2019-04-20T11:49:01.335Z,26.60
2019-04-20T11:50:13.739Z,26.50
2019-04-20T11:51:23.364Z,26.30
2019-04-20T11:52:33.247Z,26.30
2019-04-20T11:53:43.305Z,26.20
2019-04-20T11:54:44.300Z,26.20
2019-04-20T11:55:52.206Z,26.40
2019-04-20T11:57:01.573Z,26.50
2019-04-20T11:58:06.119Z,26.50
2019-04-20T11:59:12.579Z,26.60
2019-04-20T12:00:23.228Z,26.70
2019-04-20T12:01:53.086Z,26.70
2019-04-20T12:03:11.152Z,26.40
2019-04-20T12:04:20.970Z,26.10
2019-04-20T12:05:30.533Z,25.60
2019-04-20T12:06:30.730Z,26.20
2019-04-20T12:07:53.144Z,26.30
2019-04-20T12:08:59.010Z,25.50
2019-04-20T12:10:09.115Z,25.60
2019-04-20T12:11:22.726Z,25.60
2019-04-20T12:12:27.274Z,25.80
2019-04-20T12:13:24.685Z,25.50
2019-04-20T12:14:30.378Z,25.30
2019-04-20T12:15:38.665Z,25.40
2019-04-20T12:16:47.841Z,25.50
2019-04-20T12:17:53.683Z,25.40
2019-04-20T12:19:02.242Z,25.30
2019-04-20T12:20:10.087Z,25.10
2019-04-20T12:21:14.788Z,25.30
2019-04-20T12:22:19.109Z,25.30
2019-04-20T12:23:24.590Z,25.50
2019-04-20T12:24:29.148Z,25.60
2019-04-20T12:25:35.927Z,25.70
2019-04-20T12:26:40.588Z,25.90
2019-04-20T12:27:48.843Z,26.00
2019-04-20T12:28:51.631Z,26.10
2019-04-20T12:29:55.929Z,26.20
2019-04-20T12:31:04.042Z,26.10
2019-04-20T12:32:07.582Z,25.90
2019-04-20T12:33:11.932Z,25.90
2019-04-20T12:34:20.497Z,25.90
2019-04-20T12:35:26.413Z,25.50
2019-04-20T12:36:33.251Z,25.50
2019-04-20T12:37:38.869Z,25.70
2019-04-20T12:38:43.433Z,24.90
2019-04-20T12:39:47.572Z,24.50
2019-04-20T12:40:52.479Z,24.70
2019-04-20T12:42:00.547Z,24.80
2019-04-20T12:43:04.819Z,24.50
2019-04-20T12:44:12.042Z,24.70
2019-04-20T12:45:19.797Z,24.70
2019-04-20T12:46:25.183Z,24.50
2019-04-20T12:47:33.067Z,24.70
2019-04-20T12:48:37.981Z,24.70
2019-04-20T12:49:45.399Z,24.80
2019-04-20T12:50:49.913Z,24.50
2019-04-20T12:52:00.207Z,24.70
2019-04-20T12:53:02.294Z,24.90
2019-04-20T12:54:08.878Z,25.00
2019-04-20T12:55:14.916Z,24.70
2019-04-20T12:56:20.311Z,24.70
2019-04-20T12:57:24.780Z,24.70
2019-04-20T12:58:30.470Z,24.60
2019-04-20T12:59:35.786Z,24.50
2019-04-20T13:00:43.739Z,24.40
2019-04-20T13:01:51.373Z,24.40
2019-04-20T13:02:59.148Z,24.40
2019-04-20T13:04:07.073Z,24.50
2019-04-20T13:05:13.507Z,24.60
2019-04-20T13:06:19.606Z,24.70
2019-04-20T13:07:26.874Z,24.90
2019-04-20T13:08:36.650Z,24.50
2019-04-20T13:09:41.587Z,24.90
2019-04-20T13:10:48.659Z,24.90
2019-04-20T13:11:59.425Z,24.90
2019-04-20T13:13:04.577Z,24.90
2019-04-20T13:14:26.341Z,24.70
2019-04-20T13:15:36.325Z,24.40
2019-04-20T13:16:40.691Z,24.40
2019-04-20T13:17:47.972Z,24.50
2019-04-20T13:18:55.241Z,24.50
2019-04-20T13:20:00.089Z,24.70
2019-04-20T13:21:09.276Z,24.40
2019-04-20T13:22:21.104Z,24.70
2019-04-20T13:23:28.998Z,24.90
2019-04-20T13:24:34.576Z,25.00
2019-04-20T13:25:39.246Z,25.20
2019-04-20T13:26:44.823Z,25.10
2019-04-20T13:27:50.453Z,25.10
2019-04-20T13:28:55.141Z,24.90
2019-04-20T13:30:00.744Z,24.90
2019-04-20T13:31:08.006Z,25.00
2019-04-20T13:32:18.063Z,25.10
2019-04-20T13:33:19.789Z,25.10
2019-04-20T13:34:28.392Z,25.30
2019-04-20T13:35:32.674Z,25.30
2019-04-20T13:36:38.058Z,25.30
2019-04-20T13:37:43.976Z,25.30
2019-04-20T13:38:52.261Z,25.30
2019-04-20T13:39:56.682Z,25.30
2019-04-20T13:41:01.972Z,25.30
2019-04-20T13:42:13.972Z,25.30
2019-04-20T13:43:17.568Z,25.40
2019-04-20T13:44:22.024Z,25.40
2019-04-20T13:45:30.986Z,25.30
2019-04-20T13:46:37.114Z,25.10
2019-04-20T13:47:43.585Z,25.00
2019-04-20T13:48:48.854Z,25.20
2019-04-20T13:49:53.119Z,25.10
2019-04-20T13:50:58.284Z,25.20
2019-04-20T13:52:02.611Z,25.30
2019-04-20T13:53:09.633Z,25.50
2019-04-20T13:54:18.937Z,25.40
2019-04-20T13:55:25.083Z,25.50
2019-04-20T13:56:28.048Z,25.40
2019-04-20T13:57:33.985Z,25.50
2019-04-20T13:58:45.800Z,25.60
2019-04-20T13:59:52.143Z,25.70
2019-04-20T14:01:03.000Z,25.60
2019-04-20T14:02:12.952Z,25.40
2019-04-20T14:03:20.792Z,25.30
2019-04-20T14:04:26.797Z,25.20
2019-04-20T14:05:33.252Z,25.10
2019-04-20T14:06:37.630Z,25.00
2019-04-20T14:07:43.434Z,25.10
2019-04-20T14:08:47.648Z,25.30
2019-04-20T14:09:55.334Z,25.30
2019-04-20T14:10:59.692Z,25.20
2019-04-20T14:12:17.081Z,25.20
2019-04-20T14:13:15.712Z,25.30
2019-04-20T14:14:17.413Z,25.20
2019-04-20T14:15:22.976Z,25.10
2019-04-20T14:16:31.387Z,25.20
2019-04-20T14:17:32.982Z,25.30
2019-04-20T14:18:38.498Z,25.70
2019-04-20T14:19:43.137Z,25.00
2019-04-20T14:20:47.937Z,25.20
2019-04-20T14:21:54.870Z,24.90
2019-04-20T14:23:03.133Z,24.70
2019-04-20T14:24:15.195Z,24.90
2019-04-20T14:25:20.760Z,24.90
2019-04-20T14:26:25.217Z,25.00
2019-04-20T14:27:30.747Z,25.00
2019-04-20T14:28:36.814Z,24.80
2019-04-20T14:29:43.217Z,24.80
2019-04-20T14:30:47.865Z,24.90
2019-04-20T14:31:52.385Z,25.00
2019-04-20T14:32:58.858Z,25.00
2019-04-20T14:34:04.756Z,25.60
2019-04-20T14:35:12.023Z,24.80
2019-04-20T14:36:24.129Z,24.90
2019-04-20T14:37:24.684Z,25.00
2019-04-20T14:38:30.598Z,25.10
2019-04-20T14:39:36.387Z,25.20
2019-04-20T14:40:44.211Z,25.20
2019-04-20T14:41:48.616Z,25.30
2019-04-20T14:42:55.028Z,25.40
2019-04-20T14:43:58.539Z,25.40
2019-04-20T14:45:02.977Z,25.50
2019-04-20T14:46:08.405Z,25.70
2019-04-20T14:47:16.074Z,25.60
2019-04-20T14:48:22.810Z,25.40
2019-04-20T14:49:28.486Z,25.20
2019-04-20T14:50:34.168Z,24.90
2019-04-20T14:51:39.688Z,24.70
2019-04-20T14:52:47.626Z,24.40